Terminal Aerodrome Forecast
Issued by NWS

Home | Current Version | Previous Version | Text Only | Print | Product List | Glossary On
Versions: 1 2 3 4 5 6 7 8 9 10 11 12 13 14 15 16 17 18 19 20 21 22 23 24 25
000
FTUS42 KGSP 181132
TAFGMU
TAF
KGMU 181132Z 1812/1912 36003KT P6SM OVC090
     FM181500 06006KT P6SM BKN050
     FM190500 06006KT 5SM BR OVC015
     FM190700 07010KT 4SM -SHRA BR OVC008=

USA.gov is the U.S. government's official web portal to all federal, state and local government web resources and services.